DAUG/GHA METAR and TAF weather

Enter ICAO airport designator
Station Type Date Time Source
DAUG METAR 2021/07/30 22:00 UTC NOAA

DAUG 302200Z 19003KT CAVOK 37/// Q1017


Station Type Date Time Source
DAUG Decoded METAR 2021/07/30 22:00 UTC NOAA

Ghardaia, Algeria (DAUG) 32-23N 003-49E 450M
Jul 30, 2021 - 06:00 PM EDT / 2021.07.30 2200 UTC
Wind: from the S (190 degrees) at 3 MPH (3 KT):0
Visibility: greater than 7 mile(s):0
Temperature: 98 F (37 C)
Pressure (altimeter): 30.03 in. Hg (1017 hPa)
ob: DAUG 302200Z 19003KT CAVOK 37/// Q1017
cycle: 22

Station Type Date Time Source
DAUG TAF 2021/07/30 18:33 UTC NOAA

TAF DAUG 301700Z 3018/3118 18008KT CAVOK

Example: see airport list